Time;durP1;ratioP1;P1;durP2;ratioP2;P2;SDS_P1;SDS_P2;PMS_P1;PMS_P2;Temp;Humidity;BMP_temperature;BMP_pressure;BME280_temperature;BME280_humidity;BME280_pressure;Samples;Min_cycle;Max_cycle;Signal;HPM_P1;HPM_P2
2021/08/30 00:02:14;;;;;;;7.40;4.32;;;;;;;;;;5057667;28;20469;-74
2021/08/30 00:04:40;;;;;;;7.30;4.18;;;;;;;;;;5075836;28;20028;-74
2021/08/30 00:07:06;;;;;;;7.90;4.22;;;;;;;;;;5075543;28;20366;-74
2021/08/30 00:09:32;;;;;;;8.80;4.35;;;;;;;;;;5075492;28;20067;-74
2021/08/30 00:11:58;;;;;;;6.60;3.92;;;;;;;;;;5075450;28;20033;-75
2021/08/30 00:14:24;;;;;;;7.82;4.10;;;;;;;;;;5075576;28;20074;-74
2021/08/30 00:16:50;;;;;;;8.50;4.63;;;;;;;;;;5075239;28;20469;-74
2021/08/30 00:19:16;;;;;;;7.88;4.53;;;;;;;;;;5072771;28;20048;-74
2021/08/30 00:21:42;;;;;;;7.63;4.47;;;;;;;;;;5075519;28;20101;-74
2021/08/30 00:24:08;;;;;;;8.35;4.25;;;;;;;;;;5075153;28;20511;-73
2021/08/30 00:26:34;;;;;;;7.28;3.97;;;;;;;;;;5075165;28;20052;-74
2021/08/30 00:29:00;;;;;;;9.13;4.38;;;;;;;;;;5075326;28;20060;-74
2021/08/30 00:31:26;;;;;;;7.80;4.60;;;;;;;;;;5075062;28;20024;-75
2021/08/30 00:33:55;;;;;;;9.35;4.50;;;;;;;;;;5075211;28;20028;-74
2021/08/30 00:36:24;;;;;;;7.47;4.53;;;;;;;;;;5057034;28;20166;-73
2021/08/30 00:38:50;;;;;;;6.97;4.03;;;;;;;;;;5074933;28;20020;-73
2021/08/30 00:41:16;;;;;;;7.05;4.20;;;;;;;;;;5074901;28;20074;-74
2021/08/30 00:43:42;;;;;;;8.30;4.30;;;;;;;;;;5074808;28;20028;-74
2021/08/30 00:46:08;;;;;;;8.18;4.55;;;;;;;;;;5074774;28;20032;-74
2021/08/30 00:48:34;;;;;;;9.18;4.43;;;;;;;;;;5073590;28;20546;-75
2021/08/30 00:51:01;;;;;;;8.73;5.10;;;;;;;;;;5074638;28;20032;-74
2021/08/30 00:53:27;;;;;;;9.45;5.13;;;;;;;;;;5074615;28;20021;-73
2021/08/30 00:55:53;;;;;;;9.93;5.05;;;;;;;;;;5056628;28;20028;-73
2021/08/30 00:58:19;;;;;;;11.32;5.38;;;;;;;;;;5075061;28;20077;-74
2021/08/30 01:00:45;;;;;;;11.30;5.22;;;;;;;;;;5074476;28;20476;-73
2021/08/30 01:03:11;;;;;;;8.23;4.70;;;;;;;;;;5074680;28;20404;-73
2021/08/30 01:05:41;;;;;;;9.73;5.13;;;;;;;;;;5074946;28;20101;-74
2021/08/30 01:08:21;;;;;;;10.05;4.82;;;;;;;;;;5074391;28;20031;-73
2021/08/30 01:10:47;;;;;;;8.20;5.05;;;;;;;;;;5074647;28;20468;-74
2021/08/30 01:13:18;;;;;;;8.15;4.82;;;;;;;;;;5074174;28;20021;-73
2021/08/30 01:15:45;;;;;;;8.18;4.88;;;;;;;;;;5074166;28;20024;-74
2021/08/30 01:18:21;;;;;;;9.82;4.80;;;;;;;;;;5073972;28;20016;-73
2021/08/30 01:21:06;;;;;;;5.97;3.92;;;;;;;;;;5074637;28;20487;-73
2021/08/30 01:23:36;;;;;;;11.23;3.95;;;;;;;;;;5074315;28;20428;-74
2021/08/30 01:26:03;;;;;;;5.22;3.47;;;;;;;;;;5074269;28;20389;-74
2021/08/30 01:28:38;;;;;;;8.15;3.72;;;;;;;;;;5073943;28;20029;-74
2021/08/30 01:31:13;;;;;;;5.72;3.60;;;;;;;;;;5074182;28;20115;-74
2021/08/30 01:33:40;;;;;;;6.90;3.95;;;;;;;;;;5074323;28;20028;-74
2021/08/30 01:36:06;;;;;;;8.48;3.85;;;;;;;;;;5074330;28;20028;-74
2021/08/30 01:38:32;;;;;;;8.40;4.20;;;;;;;;;;5073809;28;20021;-75
2021/08/30 01:40:59;;;;;;;7.03;3.65;;;;;;;;;;5073712;28;20020;-73
2021/08/30 01:43:25;;;;;;;8.30;4.65;;;;;;;;;;5074241;28;20056;-74
2021/08/30 01:45:51;;;;;;;8.57;4.13;;;;;;;;;;5073984;28;20059;-74
2021/08/30 01:48:18;;;;;;;9.20;4.68;;;;;;;;;;5073614;28;20024;-74
2021/08/30 01:50:44;;;;;;;7.32;4.38;;;;;;;;;;5073855;28;20111;-74
2021/08/30 01:53:11;;;;;;;7.60;4.60;;;;;;;;;;5073485;28;20024;-75
2021/08/30 01:55:54;;;;;;;5.90;3.80;;;;;;;;;;5073524;28;20044;-74
2021/08/30 02:00:50;;;;;;;8.32;4.32;;;;;;;;;;5073212;28;20032;-73
2021/08/30 02:03:16;;;;;;;5.88;3.85;;;;;;;;;;5073420;28;20602;-74
2021/08/30 02:05:43;;;;;;;8.00;4.80;;;;;;;;;;5073360;28;20032;-73
2021/08/30 02:08:09;;;;;;;7.55;4.15;;;;;;;;;;5073329;28;20036;-74
2021/08/30 02:10:35;;;;;;;7.15;4.38;;;;;;;;;;5073329;28;20028;-75
2021/08/30 02:13:01;;;;;;;7.50;4.22;;;;;;;;;;5073241;28;20060;-74
2021/08/30 02:15:27;;;;;;;7.70;4.47;;;;;;;;;;5073241;28;20021;-75
2021/08/30 02:17:56;;;;;;;7.50;4.43;;;;;;;;;;5073496;28;20032;-74
2021/08/30 02:20:25;;;;;;;6.18;3.95;;;;;;;;;;5073508;28;20473;-74
2021/08/30 02:22:51;;;;;;;8.03;4.70;;;;;;;;;;5073196;28;20590;-74
2021/08/30 02:25:22;;;;;;;7.13;4.43;;;;;;;;;;5073434;28;20623;-74
2021/08/30 02:27:49;;;;;;;8.55;4.20;;;;;;;;;;5055171;28;20047;-75
2021/08/30 02:30:15;;;;;;;7.25;4.45;;;;;;;;;;5073407;28;20033;-74
2021/08/30 02:32:42;;;;;;;7.93;4.43;;;;;;;;;;5073011;28;20499;-73
2021/08/30 02:35:09;;;;;;;11.75;4.70;;;;;;;;;;5073358;28;20090;-73
2021/08/30 02:37:37;;;;;;;9.52;5.07;;;;;;;;;;5073362;28;20048;-74
2021/08/30 02:40:04;;;;;;;7.53;4.22;;;;;;;;;;5073305;28;20036;-73
2021/08/30 02:42:32;;;;;;;6.80;4.10;;;;;;;;;;5073041;28;20383;-75
2021/08/30 02:44:58;;;;;;;8.45;4.68;;;;;;;;;;5055042;28;20020;-74
2021/08/30 02:47:26;;;;;;;8.98;4.40;;;;;;;;;;5073275;28;20049;-75
2021/08/30 02:49:53;;;;;;;8.18;4.60;;;;;;;;;;5072996;28;20047;-75
2021/08/30 02:52:20;;;;;;;8.98;4.93;;;;;;;;;;5072922;28;20016;-73
2021/08/30 02:54:47;;;;;;;6.90;3.78;;;;;;;;;;5072803;28;20492;-75
2021/08/30 02:57:13;;;;;;;10.35;4.47;;;;;;;;;;5073130;28;20016;-75
2021/08/30 02:59:40;;;;;;;8.45;4.45;;;;;;;;;;5073363;28;20031;-74
2021/08/30 03:02:06;;;;;;;8.32;4.10;;;;;;;;;;5072796;28;20035;-73
2021/08/30 03:04:32;;;;;;;8.15;3.90;;;;;;;;;;5073048;28;20048;-74
2021/08/30 03:07:00;;;;;;;8.00;4.35;;;;;;;;;;5073057;28;20035;-73
2021/08/30 03:09:26;;;;;;;8.48;4.00;;;;;;;;;;5072772;28;20025;-74
2021/08/30 03:11:53;;;;;;;7.70;4.45;;;;;;;;;;5074734;28;20031;-73
2021/08/30 03:14:23;;;;;;;11.77;4.05;;;;;;;;;;5076440;28;20021;-74
2021/08/30 03:16:51;;;;;;;10.00;4.30;;;;;;;;;;5076400;28;20021;-73
2021/08/30 03:19:18;;;;;;;8.68;4.78;;;;;;;;;;5076345;28;20090;-73
2021/08/30 03:21:44;;;;;;;6.50;3.95;;;;;;;;;;5076348;28;20056;-74
2021/08/30 03:24:11;;;;;;;7.78;4.70;;;;;;;;;;5076622;28;20024;-74
2021/08/30 03:26:38;;;;;;;8.07;4.75;;;;;;;;;;5058332;28;20558;-73
2021/08/30 03:29:04;;;;;;;8.10;4.28;;;;;;;;;;5076491;28;20052;-74
2021/08/30 03:31:32;;;;;;;7.20;4.10;;;;;;;;;;5076487;28;20489;-75
2021/08/30 03:33:58;;;;;;;7.53;3.67;;;;;;;;;;5076390;28;20024;-74
2021/08/30 03:36:25;;;;;;;10.20;4.82;;;;;;;;;;5076378;28;20543;-74
2021/08/30 03:38:51;;;;;;;11.25;4.85;;;;;;;;;;5076343;28;20473;-74
2021/08/30 03:41:18;;;;;;;8.30;4.68;;;;;;;;;;5058061;28;20020;-74
2021/08/30 03:43:44;;;;;;;9.63;5.20;;;;;;;;;;5058060;28;20059;-74
2021/08/30 03:46:12;;;;;;;11.30;4.85;;;;;;;;;;5076481;28;20103;-74
2021/08/30 03:48:38;;;;;;;11.10;5.40;;;;;;;;;;5075887;28;20151;-74
2021/08/30 03:51:04;;;;;;;10.73;5.15;;;;;;;;;;5076157;28;20481;-74
2021/08/30 03:53:30;;;;;;;8.00;4.68;;;;;;;;;;5075777;28;20020;-72
2021/08/30 03:55:57;;;;;;;8.77;4.75;;;;;;;;;;5076039;28;20103;-73
2021/08/30 03:58:24;;;;;;;10.63;5.00;;;;;;;;;;5075743;28;20025;-74
2021/08/30 04:00:51;;;;;;;9.77;4.80;;;;;;;;;;5057678;28;20029;-74
2021/08/30 04:03:18;;;;;;;9.43;4.97;;;;;;;;;;5075629;28;20060;-74
2021/08/30 04:05:46;;;;;;;8.48;4.63;;;;;;;;;;5075604;28;20477;-74
2021/08/30 04:08:12;;;;;;;10.00;4.85;;;;;;;;;;5075552;28;20075;-74
2021/08/30 04:10:38;;;;;;;8.25;3.92;;;;;;;;;;5075804;28;20393;-73
2021/08/30 04:13:04;;;;;;;7.80;3.80;;;;;;;;;;5057407;28;20054;-73
2021/08/30 04:15:31;;;;;;;6.35;3.83;;;;;;;;;;5075317;28;20395;-72
2021/08/30 04:17:57;;;;;;;8.73;4.45;;;;;;;;;;5075185;28;20028;-73
2021/08/30 04:20:23;;;;;;;9.48;4.85;;;;;;;;;;5075572;28;20024;-75
2021/08/30 04:22:49;;;;;;;8.65;4.88;;;;;;;;;;5075224;28;20024;-74
2021/08/30 04:25:15;;;;;;;10.52;5.03;;;;;;;;;;5075482;28;20024;-75
2021/08/30 04:27:41;;;;;;;9.93;5.65;;;;;;;;;;5075198;28;20036;-73
2021/08/30 04:30:08;;;;;;;8.82;5.25;;;;;;;;;;5075159;28;20021;-74
2021/08/30 04:32:36;;;;;;;11.80;6.07;;;;;;;;;;5075052;28;20054;-75
2021/08/30 04:35:02;;;;;;;12.25;5.82;;;;;;;;;;5075068;28;20020;-73
2021/08/30 04:37:28;;;;;;;10.10;5.95;;;;;;;;;;5075290;28;20020;-74
2021/08/30 04:39:54;;;;;;;10.50;5.65;;;;;;;;;;5075210;28;20021;-73
2021/08/30 04:42:20;;;;;;;12.00;6.70;;;;;;;;;;5075157;28;20029;-74
2021/08/30 04:44:47;;;;;;;9.57;5.85;;;;;;;;;;5075105;28;20051;-73
2021/08/30 04:47:13;;;;;;;11.07;6.32;;;;;;;;;;5074783;28;20104;-73
2021/08/30 04:49:39;;;;;;;10.82;5.43;;;;;;;;;;5074752;28;20454;-74
2021/08/30 04:52:06;;;;;;;9.02;5.70;;;;;;;;;;5074954;28;20107;-74
2021/08/30 04:54:32;;;;;;;11.30;5.72;;;;;;;;;;5074591;28;20059;-74
2021/08/30 04:56:58;;;;;;;14.23;6.28;;;;;;;;;;5074841;28;20400;-74
2021/08/30 04:59:24;;;;;;;10.80;5.97;;;;;;;;;;5056585;28;20060;-73
2021/08/30 05:01:50;;;;;;;9.30;5.13;;;;;;;;;;5074490;28;20052;-72
2021/08/30 05:04:16;;;;;;;8.93;5.07;;;;;;;;;;5056544;28;20500;-74
2021/08/30 05:06:42;;;;;;;9.82;5.10;;;;;;;;;;5074370;28;20519;-74
2021/08/30 05:09:08;;;;;;;10.38;5.70;;;;;;;;;;5074298;28;20060;-74
2021/08/30 05:11:37;;;;;;;11.32;5.30;;;;;;;;;;5056368;28;20024;-74
2021/08/30 05:14:03;;;;;;;8.07;4.93;;;;;;;;;;5074491;28;20021;-74
2021/08/30 05:16:29;;;;;;;8.80;5.10;;;;;;;;;;5074158;28;20017;-74
2021/08/30 05:18:55;;;;;;;10.40;5.53;;;;;;;;;;5073926;28;20093;-74
2021/08/30 05:21:21;;;;;;;10.63;5.30;;;;;;;;;;5074368;28;20103;-75
2021/08/30 05:23:47;;;;;;;9.90;5.55;;;;;;;;;;5074090;28;20021;-74
2021/08/30 05:26:13;;;;;;;9.98;5.38;;;;;;;;;;5074557;28;20035;-74
2021/08/30 05:28:39;;;;;;;7.15;4.90;;;;;;;;;;5074479;28;20021;-73
2021/08/30 05:31:05;;;;;;;10.73;4.47;;;;;;;;;;5074454;28;20025;-73
2021/08/30 05:33:31;;;;;;;9.43;4.88;;;;;;;;;;5073230;28;20017;-74
2021/08/30 05:35:57;;;;;;;8.52;4.50;;;;;;;;;;5073771;28;20431;-73
2021/08/30 05:38:23;;;;;;;9.27;5.32;;;;;;;;;;5073800;28;20104;-73
2021/08/30 05:40:49;;;;;;;7.35;4.53;;;;;;;;;;5073725;28;20452;-74
2021/08/30 05:43:15;;;;;;;9.70;4.65;;;;;;;;;;5073710;28;20070;-74
2021/08/30 05:45:41;;;;;;;9.00;5.40;;;;;;;;;;5073633;28;20028;-74
2021/08/30 05:48:07;;;;;;;10.32;4.50;;;;;;;;;;5073609;28;20431;-74
2021/08/30 05:50:33;;;;;;;11.38;4.75;;;;;;;;;;5073558;28;20070;-74
2021/08/30 05:52:59;;;;;;;9.52;4.43;;;;;;;;;;5073466;28;20108;-74
2021/08/30 05:55:25;;;;;;;13.35;6.47;;;;;;;;;;5073482;28;20056;-75
2021/08/30 05:57:51;;;;;;;9.00;4.65;;;;;;;;;;5073502;28;20078;-74
2021/08/30 06:00:17;;;;;;;7.45;3.85;;;;;;;;;;5073459;28;20366;-74
2021/08/30 06:02:44;;;;;;;6.65;3.92;;;;;;;;;;5073639;28;20469;-73
2021/08/30 06:05:11;;;;;;;8.57;4.32;;;;;;;;;;5073387;28;20020;-74
2021/08/30 06:07:39;;;;;;;13.18;4.13;;;;;;;;;;5073431;28;20099;-74
2021/08/30 06:10:05;;;;;;;8.48;4.60;;;;;;;;;;5073652;28;20020;-73
2021/08/30 06:12:31;;;;;;;11.23;4.22;;;;;;;;;;5073365;28;20024;-74
2021/08/30 06:14:57;;;;;;;10.50;4.15;;;;;;;;;;5073179;28;20032;-73
2021/08/30 06:17:23;;;;;;;7.72;4.10;;;;;;;;;;5073550;28;20020;-74
2021/08/30 06:19:49;;;;;;;7.82;4.00;;;;;;;;;;5072858;28;20041;-74
2021/08/30 06:22:15;;;;;;;7.15;4.32;;;;;;;;;;5073215;28;20012;-74
2021/08/30 06:24:46;;;;;;;8.27;4.10;;;;;;;;;;5073504;28;20383;-73
2021/08/30 06:27:12;;;;;;;8.80;4.10;;;;;;;;;;5073289;28;20023;-74
2021/08/30 06:29:38;;;;;;;7.97;3.80;;;;;;;;;;5073147;28;20028;-74
2021/08/30 06:32:05;;;;;;;8.48;4.50;;;;;;;;;;5073145;28;20032;-74
2021/08/30 06:34:31;;;;;;;10.02;4.78;;;;;;;;;;5073031;28;20493;-74
2021/08/30 06:36:56;;;;;;;9.82;4.47;;;;;;;;;;5073090;28;20025;-74
2021/08/30 06:39:23;;;;;;;10.85;4.75;;;;;;;;;;5073087;28;20029;-73
2021/08/30 06:41:49;;;;;;;7.38;4.20;;;;;;;;;;5073037;28;20104;-74
2021/08/30 06:44:15;;;;;;;8.23;4.82;;;;;;;;;;5073054;28;20078;-72
2021/08/30 06:46:41;;;;;;;11.60;8.60;;;;;;;;;;5076833;28;20098;-74
2021/08/30 06:49:07;;;;;;;10.48;5.82;;;;;;;;;;5077065;28;20025;-74
2021/08/30 06:51:33;;;;;;;8.35;4.57;;;;;;;;;;5077035;28;20103;-73
2021/08/30 06:53:59;;;;;;;6.22;3.97;;;;;;;;;;5076925;28;20079;-73
2021/08/30 06:56:25;;;;;;;9.30;3.90;;;;;;;;;;5076940;28;20473;-74
2021/08/30 06:58:51;;;;;;;8.38;4.03;;;;;;;;;;5077184;28;20025;-74
2021/08/30 07:01:17;;;;;;;8.80;4.82;;;;;;;;;;5058788;28;20480;-73
2021/08/30 07:03:43;;;;;;;10.60;6.15;;;;;;;;;;5076777;28;20122;-74
2021/08/30 07:06:09;;;;;;;22.80;7.78;;;;;;;;;;5076659;28;20476;-73
2021/08/30 07:08:35;;;;;;;12.75;6.18;;;;;;;;;;5076616;28;20078;-73
2021/08/30 07:11:01;;;;;;;11.98;5.57;;;;;;;;;;5058711;28;20035;-73
2021/08/30 07:13:27;;;;;;;12.45;5.50;;;;;;;;;;5058577;28;20028;-73
2021/08/30 07:15:53;;;;;;;13.75;6.45;;;;;;;;;;5076646;28;20025;-74
2021/08/30 07:18:19;;;;;;;14.40;6.05;;;;;;;;;;5076212;28;20605;-73
2021/08/30 07:20:45;;;;;;;9.18;5.68;;;;;;;;;;5076379;28;20095;-74
2021/08/30 07:23:11;;;;;;;11.05;5.50;;;;;;;;;;5076620;28;20028;-75
2021/08/30 07:25:37;;;;;;;12.95;5.30;;;;;;;;;;5058396;28;20028;-74
2021/08/30 07:28:04;;;;;;;12.57;5.75;;;;;;;;;;5076105;28;20028;-75
2021/08/30 07:30:30;;;;;;;19.48;6.72;;;;;;;;;;5075976;28;20073;-73
2021/08/30 07:32:56;;;;;;;11.27;5.22;;;;;;;;;;5058066;28;20029;-72
2021/08/30 07:35:23;;;;;;;16.42;5.90;;;;;;;;;;5058221;28;20020;-72
2021/08/30 07:37:49;;;;;;;9.93;5.63;;;;;;;;;;5058156;28;20024;-73
2021/08/30 07:40:15;;;;;;;9.27;5.25;;;;;;;;;;5076037;28;20016;-73
2021/08/30 07:42:41;;;;;;;15.02;6.22;;;;;;;;;;5075980;28;20024;-75
2021/08/30 07:45:08;;;;;;;11.45;6.30;;;;;;;;;;5075945;28;20499;-73
2021/08/30 07:47:34;;;;;;;13.13;6.22;;;;;;;;;;5057987;28;20489;-73
2021/08/30 07:50:00;;;;;;;13.50;6.45;;;;;;;;;;5075855;28;20546;-74
2021/08/30 07:52:26;;;;;;;10.57;6.40;;;;;;;;;;5076264;28;20020;-73
2021/08/30 07:54:52;;;;;;;13.50;6.28;;;;;;;;;;5075738;28;20028;-73
2021/08/30 07:57:21;;;;;;;12.27;6.72;;;;;;;;;;5075119;28;20032;-73
2021/08/30 07:59:47;;;;;;;13.98;6.97;;;;;;;;;;5075718;28;20101;-74
2021/08/30 08:02:13;;;;;;;11.95;6.35;;;;;;;;;;5057805;28;20465;-74
2021/08/30 08:04:39;;;;;;;15.75;6.80;;;;;;;;;;5057730;28;20029;-73
2021/08/30 08:07:05;;;;;;;15.77;7.07;;;;;;;;;;5075771;28;20033;-74
2021/08/30 08:09:31;;;;;;;14.98;6.25;;;;;;;;;;5075551;28;20473;-74
2021/08/30 08:11:57;;;;;;;10.73;6.20;;;;;;;;;;5075771;28;20473;-73
2021/08/30 08:14:23;;;;;;;10.18;5.93;;;;;;;;;;5075675;28;20073;-73
2021/08/30 08:16:49;;;;;;;9.13;5.43;;;;;;;;;;5075234;28;20028;-74
2021/08/30 08:19:15;;;;;;;10.55;5.65;;;;;;;;;;5075333;28;20404;-74
2021/08/30 08:21:42;;;;;;;8.85;5.78;;;;;;;;;;5075297;28;20028;-74
2021/08/30 08:24:09;;;;;;;10.25;5.40;;;;;;;;;;5057240;28;20028;-74
2021/08/30 08:26:35;;;;;;;9.40;4.50;;;;;;;;;;5074786;28;20102;-75
2021/08/30 08:29:02;;;;;;;13.00;4.70;;;;;;;;;;5075188;28;20024;-74
2021/08/30 08:31:28;;;;;;;7.95;4.25;;;;;;;;;;5074561;28;20028;-75
2021/08/30 08:33:54;;;;;;;10.60;4.88;;;;;;;;;;5074735;28;20044;-74
2021/08/30 08:36:21;;;;;;;9.23;4.72;;;;;;;;;;5074877;28;20016;-74
2021/08/30 08:38:47;;;;;;;10.48;4.43;;;;;;;;;;5075298;28;20048;-75
2021/08/30 08:41:14;;;;;;;9.20;4.55;;;;;;;;;;5074950;28;20025;-75
2021/08/30 08:43:40;;;;;;;7.85;3.88;;;;;;;;;;5075134;28;20030;-74
2021/08/30 08:46:06;;;;;;;9.75;4.68;;;;;;;;;;5075142;28;20024;-74
2021/08/30 08:48:32;;;;;;;10.25;4.70;;;;;;;;;;5073788;28;20032;-74
2021/08/30 08:50:58;;;;;;;7.80;4.65;;;;;;;;;;5074318;28;20043;-75
2021/08/30 08:53:24;;;;;;;10.48;4.50;;;;;;;;;;5056400;28;20031;-74
2021/08/30 08:55:51;;;;;;;9.63;4.68;;;;;;;;;;5074457;28;20473;-75
2021/08/30 08:58:19;;;;;;;12.65;4.40;;;;;;;;;;5074275;28;20021;-75
2021/08/30 09:00:46;;;;;;;9.98;4.32;;;;;;;;;;5055807;28;20051;-75
2021/08/30 09:03:19;;;;;;;9.27;4.57;;;;;;;;;;5074343;28;20032;-74
2021/08/30 09:05:46;;;;;;;9.45;4.68;;;;;;;;;;5055902;28;20408;-75
2021/08/30 09:08:32;;;;;;;9.57;4.45;;;;;;;;;;5073896;28;20091;-75
2021/08/30 09:10:59;;;;;;;9.63;4.38;;;;;;;;;;5074185;28;20497;-76
2021/08/30 09:13:31;;;;;;;11.02;4.70;;;;;;;;;;5074220;28;20020;-75
2021/08/30 09:15:58;;;;;;;7.68;4.15;;;;;;;;;;5074148;28;20473;-75
2021/08/30 09:18:29;;;;;;;10.60;4.55;;;;;;;;;;5074006;28;20097;-76
2021/08/30 09:20:55;;;;;;;10.95;4.28;;;;;;;;;;5074468;28;20024;-76
2021/08/30 09:23:22;;;;;;;7.53;4.07;;;;;;;;;;5074383;28;20384;-75
2021/08/30 09:25:48;;;;;;;8.32;3.97;;;;;;;;;;5074011;28;20028;-76
2021/08/30 09:28:14;;;;;;;7.55;3.72;;;;;;;;;;5074015;28;20099;-76
2021/08/30 09:30:54;;;;;;;8.35;4.10;;;;;;;;;;5071194;28;20416;-75
2021/08/30 09:33:20;;;;;;;8.73;4.18;;;;;;;;;;5069034;28;20032;-74
2021/08/30 09:35:55;;;;;;;9.27;4.43;;;;;;;;;;5070541;28;20021;-74
2021/08/30 09:38:21;;;;;;;7.60;3.97;;;;;;;;;;5071117;28;20100;-74
2021/08/30 09:40:47;;;;;;;7.65;3.95;;;;;;;;;;5070487;28;20078;-75
2021/08/30 09:43:18;;;;;;;7.90;4.40;;;;;;;;;;5070393;28;20024;-74
2021/08/30 09:45:44;;;;;;;6.13;3.47;;;;;;;;;;5070705;28;20021;-74
2021/08/30 09:48:14;;;;;;;10.48;4.05;;;;;;;;;;5070595;28;20029;-74
2021/08/30 09:50:44;;;;;;;7.45;3.50;;;;;;;;;;5070264;28;20020;-74
2021/08/30 09:53:10;;;;;;;9.52;4.30;;;;;;;;;;5070494;28;20048;-74
2021/08/30 09:55:37;;;;;;;6.40;3.95;;;;;;;;;;5070149;28;20500;-74
2021/08/30 09:58:03;;;;;;;8.18;4.13;;;;;;;;;;5070082;28;20025;-74
2021/08/30 10:00:29;;;;;;;11.30;4.30;;;;;;;;;;5070075;28;20058;-74
2021/08/30 10:02:59;;;;;;;6.63;3.90;;;;;;;;;;5070052;28;20396;-74
2021/08/30 10:05:27;;;;;;;8.82;3.97;;;;;;;;;;5070263;28;20021;-74
2021/08/30 10:07:53;;;;;;;7.47;3.28;;;;;;;;;;5070167;28;20385;-74
2021/08/30 10:10:20;;;;;;;5.53;3.17;;;;;;;;;;5069851;28;20491;-74
2021/08/30 10:12:48;;;;;;;9.85;3.65;;;;;;;;;;5070084;28;20104;-74
2021/08/30 10:15:18;;;;;;;5.18;3.13;;;;;;;;;;5069987;28;20095;-74
2021/08/30 10:17:44;;;;;;;8.50;3.55;;;;;;;;;;5070041;28;20035;-75
2021/08/30 10:20:22;;;;;;;5.93;2.80;;;;;;;;;;5069672;28;20488;-74
2021/08/30 10:22:57;;;;;;;5.15;3.20;;;;;;;;;;5070184;28;20036;-74
2021/08/30 10:25:23;;;;;;;6.00;2.90;;;;;;;;;;5069345;28;20056;-74
2021/08/30 10:27:58;;;;;;;6.32;3.08;;;;;;;;;;5070419;28;20024;-74
2021/08/30 10:30:24;;;;;;;7.28;3.00;;;;;;;;;;5069399;28;20124;-74
2021/08/30 10:32:53;;;;;;;8.10;3.20;;;;;;;;;;5069522;28;20033;-74
2021/08/30 10:35:20;;;;;;;7.60;2.72;;;;;;;;;;5069633;28;20032;-73
2021/08/30 10:37:47;;;;;;;5.43;2.65;;;;;;;;;;5069620;28;20078;-74
2021/08/30 10:40:17;;;;;;;6.72;2.28;;;;;;;;;;5066884;28;20036;-74
2021/08/30 10:42:43;;;;;;;3.20;2.00;;;;;;;;;;5056062;28;20050;-74
2021/08/30 10:45:10;;;;;;;5.07;2.58;;;;;;;;;;5055968;28;20118;-74
2021/08/30 11:08:03;;;;;;;6.45;3.00;;;;;;;;;;5132054;27;20124;-74
2021/08/30 11:10:30;;;;;;;5.55;2.80;;;;;;;;;;5111459;28;20103;-76
2021/08/30 11:12:56;;;;;;;6.70;2.97;;;;;;;;;;5110833;28;20032;-76
2021/08/30 11:15:23;;;;;;;4.20;2.95;;;;;;;;;;5110710;28;20077;-75
2021/08/30 11:17:49;;;;;;;6.55;3.35;;;;;;;;;;5110745;28;20047;-75
2021/08/30 11:20:18;;;;;;;6.15;3.33;;;;;;;;;;5111253;28;20016;-74
2021/08/30 11:22:54;;;;;;;4.88;3.03;;;;;;;;;;5110641;28;20020;-74
2021/08/30 11:25:20;;;;;;;5.82;3.00;;;;;;;;;;5110841;28;20027;-75
2021/08/30 11:27:47;;;;;;;7.82;3.30;;;;;;;;;;5110829;28;20020;-74
2021/08/30 11:30:14;;;;;;;6.40;3.20;;;;;;;;;;5109243;28;20584;-74
2021/08/30 11:32:40;;;;;;;7.28;3.40;;;;;;;;;;5111069;28;20020;-75
2021/08/30 11:35:08;;;;;;;6.95;3.45;;;;;;;;;;5110354;28;20016;-75
2021/08/30 11:37:34;;;;;;;5.97;3.15;;;;;;;;;;5110410;28;20035;-75
2021/08/30 11:40:02;;;;;;;9.20;3.47;;;;;;;;;;5110315;28;20618;-74
2021/08/30 11:42:32;;;;;;;7.68;3.38;;;;;;;;;;5110236;28;20024;-74
2021/08/30 11:45:00;;;;;;;7.00;3.30;;;;;;;;;;5110263;28;20027;-76
2021/08/30 11:47:26;;;;;;;5.22;3.08;;;;;;;;;;5110512;28;20048;-75
2021/08/30 11:49:54;;;;;;;5.65;3.10;;;;;;;;;;5110144;28;20038;-76
2021/08/30 11:52:21;;;;;;;5.18;2.95;;;;;;;;;;5110385;28;20420;-75
2021/08/30 11:54:58;;;;;;;5.05;2.60;;;;;;;;;;5110012;28;20058;-75
2021/08/30 11:57:24;;;;;;;6.32;2.97;;;;;;;;;;5110000;28;20126;-74
2021/08/30 11:59:53;;;;;;;5.25;3.15;;;;;;;;;;5090922;28;20078;-75
2021/08/30 12:02:20;;;;;;;5.50;3.00;;;;;;;;;;5089569;28;20035;-75
2021/08/30 12:04:46;;;;;;;3.83;2.78;;;;;;;;;;5089525;28;20042;-74
2021/08/30 12:07:14;;;;;;;4.55;2.47;;;;;;;;;;5084980;28;20055;-75
2021/08/30 12:09:44;;;;;;;4.78;2.63;;;;;;;;;;5076219;28;20027;-73
2021/08/30 12:12:10;;;;;;;;;;;;;;;;;;5075037;28;20616;-75
2021/08/30 12:14:36;;;;;;;4.53;2.58;;;;;;;;;;5075756;28;19943;-74
2021/08/30 12:17:02;;;;;;;4.95;2.40;;;;;;;;;;5075785;28;20026;-74
2021/08/30 12:19:28;;;;;;;4.28;2.35;;;;;;;;;;5076066;28;20056;-75
2021/08/30 12:21:56;;;;;;;4.78;2.60;;;;;;;;;;5075861;28;20021;-75
2021/08/30 12:24:22;;;;;;;4.43;2.10;;;;;;;;;;5075927;28;20017;-74
2021/08/30 12:26:51;;;;;;;4.63;2.53;;;;;;;;;;5075603;28;20025;-75
2021/08/30 12:29:17;;;;;;;4.40;2.35;;;;;;;;;;5076093;28;20021;-75
2021/08/30 12:31:50;;;;;;;3.55;2.10;;;;;;;;;;5075535;28;20103;-76
2021/08/30 12:34:17;;;;;;;5.57;2.28;;;;;;;;;;5075553;28;20025;-74
2021/08/30 12:36:47;;;;;;;2.65;2.17;;;;;;;;;;5075650;28;20066;-75
2021/08/30 12:39:13;;;;;;;3.97;2.95;;;;;;;;;;5075954;28;20034;-75
2021/08/30 12:41:39;;;;;;;3.80;2.20;;;;;;;;;;5075329;28;20048;-74
2021/08/30 12:44:05;;;;;;;3.92;2.63;;;;;;;;;;5075622;28;20063;-73
2021/08/30 12:46:31;;;;;;;4.57;2.22;;;;;;;;;;5075541;28;20025;-74
2021/08/30 12:48:59;;;;;;;4.38;2.40;;;;;;;;;;5075534;28;20087;-75
2021/08/30 12:51:26;;;;;;;4.65;2.60;;;;;;;;;;5075219;28;20021;-74
2021/08/30 12:53:52;;;;;;;4.93;3.13;;;;;;;;;;5075400;28;20029;-76
2021/08/30 12:56:18;;;;;;;4.88;2.80;;;;;;;;;;5075067;28;20048;-74
2021/08/30 12:58:44;;;;;;;7.55;3.58;;;;;;;;;;5074956;28;20386;-74
2021/08/30 13:01:10;;;;;;;6.18;3.20;;;;;;;;;;5075744;28;20065;-74
2021/08/30 13:03:37;;;;;;;5.00;2.40;;;;;;;;;;5075497;28;20035;-74
2021/08/30 13:06:03;;;;;;;4.35;2.47;;;;;;;;;;5074718;28;20087;-74
2021/08/30 13:08:29;;;;;;;8.00;2.97;;;;;;;;;;5075558;28;20104;-73
2021/08/30 13:10:55;;;;;;;5.03;2.65;;;;;;;;;;5074772;28;20101;-76
2021/08/30 13:13:21;;;;;;;5.68;2.58;;;;;;;;;;5074823;28;20029;-76
2021/08/30 13:15:48;;;;;;;5.15;2.95;;;;;;;;;;5075149;28;20062;-75
2021/08/30 13:18:15;;;;;;;6.63;3.05;;;;;;;;;;5074857;28;20517;-74
2021/08/30 13:20:42;;;;;;;9.70;3.22;;;;;;;;;;5074024;28;20020;-74
2021/08/30 13:23:11;;;;;;;4.57;2.60;;;;;;;;;;5074813;28;20029;-74
2021/08/30 13:25:38;;;;;;;4.28;2.28;;;;;;;;;;5074705;28;20024;-73
2021/08/30 13:28:04;;;;;;;5.97;2.58;;;;;;;;;;5074011;28;20028;-74
2021/08/30 13:30:30;;;;;;;4.15;2.38;;;;;;;;;;5074084;28;20093;-74
2021/08/30 13:32:56;;;;;;;5.68;2.70;;;;;;;;;;5074753;28;20029;-75
2021/08/30 13:35:22;;;;;;;4.18;2.65;;;;;;;;;;5073829;28;20052;-74
2021/08/30 13:37:49;;;;;;;6.25;3.70;;;;;;;;;;5074825;28;20020;-74
2021/08/30 13:40:16;;;;;;;4.13;2.72;;;;;;;;;;5072715;28;20375;-73
2021/08/30 13:42:43;;;;;;;4.63;3.00;;;;;;;;;;5074613;28;20025;-76
2021/08/30 13:45:09;;;;;;;6.35;3.03;;;;;;;;;;5074371;28;20025;-74
2021/08/30 13:47:35;;;;;;;5.78;2.70;;;;;;;;;;5074824;28;20028;-75
2021/08/30 13:50:01;;;;;;;4.57;2.78;;;;;;;;;;5074134;28;20527;-81
2021/08/30 13:52:28;;;;;;;4.85;2.88;;;;;;;;;;5073870;28;20489;-75
2021/08/30 13:54:54;;;;;;;5.03;3.40;;;;;;;;;;5073913;28;20667;-77
2021/08/30 13:57:20;;;;;;;6.13;3.10;;;;;;;;;;5074057;28;20486;-76
2021/08/30 13:59:46;;;;;;;5.65;3.22;;;;;;;;;;5073747;28;20020;-74
2021/08/30 14:02:13;;;;;;;5.30;3.30;;;;;;;;;;5072890;28;20024;-75
2021/08/30 14:04:39;;;;;;;4.80;3.35;;;;;;;;;;5072593;28;20441;-77
2021/08/30 14:07:05;;;;;;;4.57;3.28;;;;;;;;;;5073487;28;20071;-75
2021/08/30 14:09:32;;;;;;;5.57;3.67;;;;;;;;;;5072380;28;20028;-74
2021/08/30 14:11:58;;;;;;;7.57;4.00;;;;;;;;;;5073593;28;20048;-77
2021/08/30 14:14:25;;;;;;;7.43;4.22;;;;;;;;;;5073889;28;20073;-76
2021/08/30 14:16:51;;;;;;;6.43;4.13;;;;;;;;;;5072133;28;20047;-76
2021/08/30 14:19:17;;;;;;;6.57;4.30;;;;;;;;;;5073514;28;20028;-74
2021/08/30 14:21:43;;;;;;;7.90;4.30;;;;;;;;;;5072055;28;20064;-74
2021/08/30 14:24:09;;;;;;;6.40;4.10;;;;;;;;;;5072475;28;20066;-75
2021/08/30 14:26:36;;;;;;;8.00;4.22;;;;;;;;;;5073360;28;20531;-74
2021/08/30 14:29:02;;;;;;;7.10;4.15;;;;;;;;;;5072652;28;20367;-76
2021/08/30 14:31:29;;;;;;;6.60;4.03;;;;;;;;;;5073291;28;20056;-75
2021/08/30 14:33:55;;;;;;;6.38;4.25;;;;;;;;;;5073596;28;20028;-77
2021/08/30 14:36:21;;;;;;;7.97;4.68;;;;;;;;;;5071905;28;20362;-76
2021/08/30 14:38:47;;;;;;;6.60;4.57;;;;;;;;;;5072186;28;20382;-75
2021/08/30 14:41:14;;;;;;;8.43;4.55;;;;;;;;;;5072879;28;20060;-76
2021/08/30 14:43:40;;;;;;;9.77;4.80;;;;;;;;;;5073271;28;20024;-75
2021/08/30 14:46:06;;;;;;;7.10;4.50;;;;;;;;;;5073161;28;20474;-74
2021/08/30 14:48:33;;;;;;;7.88;4.75;;;;;;;;;;5073197;28;20032;-74
2021/08/30 14:50:59;;;;;;;9.38;5.03;;;;;;;;;;5073152;28;20032;-74
2021/08/30 14:53:25;;;;;;;7.32;5.13;;;;;;;;;;5073694;28;20074;-73
2021/08/30 14:55:51;;;;;;;9.77;5.00;;;;;;;;;;5073594;28;20504;-75
2021/08/30 14:58:17;;;;;;;8.75;5.10;;;;;;;;;;5073008;28;20024;-74
2021/08/30 15:00:43;;;;;;;10.65;5.15;;;;;;;;;;5073088;28;20434;-75
2021/08/30 15:03:10;;;;;;;9.00;5.30;;;;;;;;;;5073042;28;20100;-75